createdAt,value
2023-03-03T00:02:29.154Z,214.50
2023-03-03T00:05:08.532Z,194.25
2023-03-03T00:07:46.672Z,179.45
2023-03-03T00:10:35.593Z,171.55
2023-03-03T00:13:19.229Z,133.95
2023-03-03T00:15:50.019Z,170.40
2023-03-03T00:18:33.150Z,128.15
2023-03-03T00:21:12.827Z,112.35
2023-03-03T00:23:47.672Z,122.47
2023-03-03T00:26:26.131Z,211.98
2023-03-03T00:29:05.471Z,131.15
2023-03-03T00:31:40.871Z,93.00
2023-03-03T00:34:25.034Z,145.10
2023-03-03T00:37:02.570Z,117.47
2023-03-03T00:39:40.875Z,127.82
2023-03-03T00:42:16.812Z,115.40
2023-03-03T00:45:00.560Z,118.45
2023-03-03T00:47:39.365Z,102.00
2023-03-03T00:50:15.368Z,93.80
2023-03-03T00:52:55.171Z,90.43
2023-03-03T00:55:30.372Z,133.38
2023-03-03T00:58:07.699Z,118.65
2023-03-03T01:00:50.926Z,103.38
2023-03-03T01:03:29.249Z,96.68
2023-03-03T01:06:04.361Z,93.15
2023-03-03T01:08:42.322Z,117.18
2023-03-03T01:11:19.381Z,83.57
2023-03-03T01:13:54.209Z,100.00
2023-03-03T01:16:33.288Z,121.68
2023-03-03T01:19:10.086Z,99.85
2023-03-03T01:21:45.516Z,99.45
2023-03-03T01:24:21.273Z,98.43
2023-03-03T01:26:59.016Z,132.40
2023-03-03T01:29:34.275Z,103.65
2023-03-03T01:32:13.422Z,112.07
2023-03-03T01:34:50.658Z,103.10
2023-03-03T01:37:25.888Z,99.80
2023-03-03T01:40:02.313Z,140.17
2023-03-03T01:42:41.101Z,108.88
2023-03-03T01:45:23.219Z,122.85
2023-03-03T01:48:03.094Z,138.38
2023-03-03T01:50:44.408Z,133.45
2023-03-03T01:53:25.014Z,103.10
2023-03-03T01:58:29.989Z,127.03
2023-03-03T02:01:08.548Z,110.32
2023-03-03T02:03:46.457Z,101.13
2023-03-03T02:06:24.392Z,116.07
2023-03-03T02:09:02.912Z,77.32
2023-03-03T02:11:40.163Z,89.97
2023-03-03T02:14:18.370Z,86.45
2023-03-03T02:16:54.133Z,69.55
2023-03-03T02:19:36.319Z,104.03
2023-03-03T02:22:12.115Z,87.50
2023-03-03T02:24:48.397Z,80.97
2023-03-03T02:27:27.282Z,92.53
2023-03-03T02:30:12.784Z,88.70
2023-03-03T02:32:47.077Z,89.80
2023-03-03T02:35:32.218Z,89.90
2023-03-03T02:38:13.920Z,108.30
2023-03-03T02:40:53.287Z,87.78
2023-03-03T02:43:33.569Z,100.60
2023-03-03T02:46:08.513Z,125.23
2023-03-03T02:48:43.686Z,102.60
2023-03-03T02:51:22.225Z,91.30
2023-03-03T02:53:58.668Z,108.30
2023-03-03T02:56:36.992Z,103.23
2023-03-03T02:59:15.776Z,79.25
2023-03-03T03:01:56.384Z,101.27
2023-03-03T03:04:32.195Z,113.85
2023-03-03T03:07:09.914Z,88.43
2023-03-03T03:09:44.908Z,102.72
2023-03-03T03:12:21.951Z,83.93
2023-03-03T03:15:06.318Z,85.20
2023-03-03T03:17:45.529Z,97.10
2023-03-03T03:20:20.129Z,85.65
2023-03-03T03:23:00.601Z,92.53
2023-03-03T03:25:36.129Z,89.63
2023-03-03T03:28:16.451Z,99.95
2023-03-03T03:30:55.204Z,97.05
2023-03-03T03:33:31.754Z,95.80
2023-03-03T03:38:46.482Z,83.50
2023-03-03T03:41:20.188Z,94.93
2023-03-03T03:43:58.044Z,85.50
2023-03-03T03:46:39.420Z,90.25
2023-03-03T03:49:20.931Z,88.20
2023-03-03T03:51:58.423Z,96.47
2023-03-03T03:54:39.182Z,80.63
2023-03-03T03:57:16.853Z,88.80
2023-03-03T03:59:53.794Z,86.03
2023-03-03T04:05:07.652Z,75.45
2023-03-03T04:07:43.257Z,78.90
2023-03-03T04:10:21.279Z,74.80
2023-03-03T04:12:57.380Z,64.00
2023-03-03T04:15:33.452Z,60.42
2023-03-03T04:18:16.635Z,57.10
2023-03-03T04:20:54.957Z,54.33
2023-03-03T04:23:33.424Z,48.95
2023-03-03T04:26:10.911Z,48.47
2023-03-03T04:28:47.492Z,46.83
2023-03-03T04:31:24.024Z,45.50
2023-03-03T04:34:02.715Z,50.10
2023-03-03T04:36:38.767Z,44.47
2023-03-03T04:39:14.220Z,49.65
2023-03-03T04:41:54.986Z,50.08
2023-03-03T04:44:29.471Z,54.28
2023-03-03T04:47:07.392Z,55.35
2023-03-03T04:49:45.635Z,54.78
2023-03-03T04:52:22.143Z,53.55
2023-03-03T04:57:35.736Z,45.58
2023-03-03T05:00:18.864Z,49.88
2023-03-03T05:02:53.984Z,49.95
2023-03-03T05:05:31.814Z,47.70
2023-03-03T05:08:07.388Z,33.65
2023-03-03T05:10:46.322Z,47.75
2023-03-03T05:13:24.255Z,44.22
2023-03-03T05:16:00.147Z,42.28
2023-03-03T05:18:35.421Z,40.83
2023-03-03T05:21:13.356Z,37.60
2023-03-03T05:23:49.217Z,34.00
2023-03-03T05:26:25.473Z,34.20
2023-03-03T05:29:03.196Z,29.15
2023-03-03T05:31:45.555Z,32.55
2023-03-03T05:34:21.957Z,34.97
2023-03-03T05:37:00.634Z,35.20
2023-03-03T05:39:39.167Z,31.45
2023-03-03T05:42:17.815Z,29.55
2023-03-03T05:44:55.182Z,36.00
2023-03-03T05:47:31.003Z,28.40
2023-03-03T05:50:08.703Z,33.22
2023-03-03T05:52:51.307Z,27.20
2023-03-03T05:55:29.273Z,29.08
2023-03-03T05:58:08.091Z,32.03
2023-03-03T06:00:46.820Z,32.22
2023-03-03T06:03:22.042Z,34.80
2023-03-03T06:05:59.157Z,33.50
2023-03-03T06:08:37.996Z,33.03
2023-03-03T06:11:13.963Z,33.97
2023-03-03T06:16:28.165Z,31.40
2023-03-03T06:19:04.531Z,42.47
2023-03-03T06:21:42.625Z,43.70
2023-03-03T06:24:21.970Z,49.10
2023-03-03T06:27:01.142Z,56.10
2023-03-03T06:29:35.066Z,52.80
2023-03-03T06:32:10.566Z,45.08
2023-03-03T06:34:50.339Z,47.13
2023-03-03T06:37:25.969Z,41.73
2023-03-03T06:40:07.396Z,49.60
2023-03-03T06:42:46.876Z,51.15
2023-03-03T06:45:22.475Z,43.50
2023-03-03T06:47:59.662Z,42.75
2023-03-03T06:50:36.698Z,62.00
2023-03-03T06:53:14.876Z,47.95
2023-03-03T06:55:49.217Z,52.45
2023-03-03T06:58:27.906Z,49.47
2023-03-03T07:01:04.911Z,45.53
2023-03-03T07:03:42.594Z,54.50
2023-03-03T07:06:23.184Z,47.70
2023-03-03T07:09:01.318Z,45.75
2023-03-03T07:11:42.430Z,47.80
2023-03-03T07:14:22.909Z,47.17
2023-03-03T07:17:02.101Z,43.70
2023-03-03T07:19:41.842Z,38.63
2023-03-03T07:22:16.692Z,42.65
2023-03-03T07:24:53.342Z,47.30
2023-03-03T07:27:29.299Z,41.75
2023-03-03T07:30:21.287Z,32.63
2023-03-03T07:32:57.756Z,38.88
2023-03-03T07:35:41.949Z,34.80
2023-03-03T07:38:38.956Z,37.10
2023-03-03T07:41:17.345Z,32.63
2023-03-03T07:43:55.371Z,37.63
2023-03-03T07:46:34.375Z,50.78
2023-03-03T07:49:20.858Z,42.50
2023-03-03T07:51:57.977Z,52.90
2023-03-03T07:54:40.701Z,44.13
2023-03-03T07:57:19.345Z,47.93
2023-03-03T07:59:57.029Z,48.10
2023-03-03T08:02:46.985Z,47.30
2023-03-03T08:05:34.423Z,46.23
2023-03-03T08:08:34.766Z,50.53
2023-03-03T08:11:32.783Z,42.25
2023-03-03T08:14:12.981Z,45.00
2023-03-03T08:16:48.732Z,43.63
2023-03-03T08:19:20.377Z,44.65
2023-03-03T08:22:05.574Z,48.85
2023-03-03T08:24:46.667Z,46.17
2023-03-03T08:27:24.520Z,41.33
2023-03-03T08:30:03.172Z,41.65
2023-03-03T08:32:40.827Z,38.95
2023-03-03T08:35:19.257Z,39.92
2023-03-03T08:37:59.087Z,44.90
2023-03-03T08:40:35.550Z,40.85
2023-03-03T08:43:14.851Z,44.97
2023-03-03T08:45:52.789Z,46.08
2023-03-03T08:48:29.045Z,48.25
2023-03-03T08:51:08.722Z,43.93
2023-03-03T08:53:45.964Z,45.33
2023-03-03T08:56:24.422Z,44.97
2023-03-03T08:59:03.671Z,50.03
2023-03-03T09:01:40.807Z,47.90
2023-03-03T09:04:18.255Z,53.20
2023-03-03T09:06:55.372Z,49.42
2023-03-03T09:09:38.028Z,53.85
2023-03-03T09:12:12.919Z,50.90
2023-03-03T09:14:50.170Z,54.20
2023-03-03T09:17:30.126Z,50.25
2023-03-03T09:20:21.691Z,51.27
2023-03-03T09:22:57.825Z,58.47
2023-03-03T09:28:24.661Z,51.50
2023-03-03T09:31:05.272Z,51.00
2023-03-03T09:33:40.260Z,54.03
2023-03-03T09:36:23.568Z,48.35
2023-03-03T09:39:02.506Z,46.45
2023-03-03T09:42:12.631Z,46.53
2023-03-03T09:45:22.065Z,48.17
2023-03-03T09:47:56.525Z,45.00
2023-03-03T09:50:40.087Z,44.00
2023-03-03T09:53:23.074Z,42.15
2023-03-03T09:56:02.549Z,40.35
2023-03-03T09:58:58.761Z,46.30
2023-03-03T10:01:43.471Z,42.95
2023-03-03T10:04:17.974Z,45.88
2023-03-03T10:06:58.914Z,47.90
2023-03-03T10:09:47.823Z,45.50
2023-03-03T10:12:26.069Z,48.72
2023-03-03T10:15:01.570Z,49.67
2023-03-03T10:17:45.328Z,45.20
2023-03-03T10:20:29.505Z,45.70
2023-03-03T10:29:38.645Z,58.45
2023-03-03T10:32:39.365Z,53.63
2023-03-03T10:35:29.160Z,51.00
2023-03-03T10:38:03.270Z,47.05
2023-03-03T10:40:40.084Z,52.78
2023-03-03T10:43:44.913Z,51.92
2023-03-03T10:46:39.378Z,47.08
2023-03-03T10:49:26.977Z,45.85
2023-03-03T10:52:34.329Z,46.28
2023-03-03T10:55:30.222Z,50.60
2023-03-03T11:00:40.733Z,49.30
2023-03-03T11:03:38.114Z,48.55
2023-03-03T11:09:04.869Z,47.67
2023-03-03T11:11:44.178Z,41.53
2023-03-03T11:14:25.466Z,45.33
2023-03-03T11:17:01.566Z,40.17
2023-03-03T11:22:39.396Z,35.65
2023-03-03T11:25:21.849Z,35.15
2023-03-03T11:28:12.461Z,33.05
2023-03-03T11:30:46.655Z,30.83
2023-03-03T11:33:25.162Z,30.35
2023-03-03T11:36:09.399Z,32.65
2023-03-03T11:39:00.952Z,31.58
2023-03-03T11:41:44.410Z,26.10
2023-03-03T11:44:34.135Z,29.88
2023-03-03T11:47:14.348Z,30.88
2023-03-03T11:50:03.746Z,29.83
2023-03-03T11:52:48.060Z,25.85
2023-03-03T11:55:34.218Z,30.15
2023-03-03T12:01:17.054Z,27.88
2023-03-03T12:04:01.596Z,25.60
2023-03-03T12:09:51.113Z,27.30
2023-03-03T12:12:33.799Z,32.05
2023-03-03T12:15:20.345Z,29.02
2023-03-03T12:18:37.555Z,28.13
2023-03-03T12:24:50.516Z,25.38
2023-03-03T12:27:37.979Z,28.70
2023-03-03T12:33:32.223Z,26.45
2023-03-03T12:39:35.453Z,23.83
2023-03-03T12:42:15.620Z,21.50
2023-03-03T12:44:50.776Z,23.85
2023-03-03T12:47:32.044Z,25.92
2023-03-03T12:50:20.301Z,22.80
2023-03-03T12:52:58.077Z,21.50
2023-03-03T12:55:39.961Z,27.10
2023-03-03T12:58:20.971Z,21.02
2023-03-03T13:01:03.927Z,22.75
2023-03-03T13:03:55.284Z,23.40
2023-03-03T13:06:32.293Z,27.92
2023-03-03T13:09:21.254Z,25.52
2023-03-03T13:12:04.355Z,26.07
2023-03-03T13:14:41.824Z,23.08
2023-03-03T13:17:22.232Z,26.35
2023-03-03T13:20:03.976Z,24.77
2023-03-03T13:22:48.197Z,30.13
2023-03-03T13:25:48.083Z,22.95
2023-03-03T13:28:29.516Z,29.63
2023-03-03T13:31:07.088Z,25.90
2023-03-03T13:33:44.324Z,24.88
2023-03-03T13:36:26.629Z,31.05
2023-03-03T13:39:07.595Z,24.52
2023-03-03T13:41:42.111Z,26.40
2023-03-03T13:44:23.392Z,27.30
2023-03-03T13:47:05.973Z,23.63
2023-03-03T13:49:48.244Z,25.33
2023-03-03T13:52:27.979Z,27.73
2023-03-03T13:55:29.717Z,26.30
2023-03-03T13:58:01.366Z,25.70
2023-03-03T14:00:46.678Z,24.20
2023-03-03T14:03:45.111Z,29.85
2023-03-03T14:06:21.326Z,29.20
2023-03-03T14:09:24.118Z,27.63
2023-03-03T14:12:04.119Z,25.70
2023-03-03T14:14:49.731Z,26.02
2023-03-03T14:17:31.318Z,27.75
2023-03-03T14:20:18.765Z,25.93
2023-03-03T14:22:57.697Z,20.10
2023-03-03T14:25:53.005Z,23.52
2023-03-03T14:28:30.016Z,29.45
2023-03-03T14:31:11.273Z,24.30
2023-03-03T14:33:47.839Z,24.17
2023-03-03T14:36:22.561Z,26.65
2023-03-03T14:39:00.152Z,29.48
2023-03-03T14:41:45.870Z,25.15
2023-03-03T14:44:28.956Z,22.37
2023-03-03T14:47:03.380Z,19.35
2023-03-03T14:49:40.673Z,18.35
2023-03-03T14:52:27.537Z,18.45
2023-03-03T14:55:05.472Z,18.67
2023-03-03T14:57:51.622Z,20.88
2023-03-03T15:00:36.690Z,18.52
2023-03-03T15:03:12.072Z,18.95
2023-03-03T15:05:53.268Z,20.75
2023-03-03T15:08:35.051Z,20.17
2023-03-03T15:11:17.883Z,20.50
2023-03-03T15:13:59.324Z,21.77
2023-03-03T15:16:40.368Z,22.45
2023-03-03T15:19:35.436Z,21.25
2023-03-03T15:22:16.307Z,22.95
2023-03-03T15:24:55.812Z,21.55
2023-03-03T15:27:34.563Z,23.15
2023-03-03T15:30:19.461Z,23.00
2023-03-03T15:33:00.458Z,23.92
2023-03-03T15:35:43.969Z,24.95
2023-03-03T15:38:18.594Z,27.48
2023-03-03T15:41:00.293Z,28.33
2023-03-03T15:43:40.101Z,25.95
2023-03-03T15:46:27.404Z,25.20
2023-03-03T15:49:08.444Z,25.03
2023-03-03T15:52:04.394Z,32.50
2023-03-03T15:54:46.696Z,32.35
2023-03-03T15:57:26.251Z,28.00
2023-03-03T16:00:01.014Z,31.27
2023-03-03T16:02:47.296Z,27.80
2023-03-03T16:05:27.030Z,26.85
2023-03-03T16:08:09.188Z,31.55
2023-03-03T16:10:53.720Z,34.63
2023-03-03T16:13:46.130Z,33.85
2023-03-03T16:16:30.054Z,35.45
2023-03-03T16:19:15.414Z,27.52
2023-03-03T16:22:33.960Z,28.45
2023-03-03T16:25:35.370Z,31.45
2023-03-03T16:28:14.722Z,31.05
2023-03-03T16:30:54.632Z,27.08
2023-03-03T16:33:35.727Z,31.35
2023-03-03T16:36:16.585Z,32.45
2023-03-03T16:38:56.038Z,23.83
2023-03-03T16:41:34.180Z,34.85
2023-03-03T16:44:16.199Z,28.43
2023-03-03T16:46:52.405Z,27.73
2023-03-03T16:52:01.460Z,26.87
2023-03-03T16:54:43.236Z,25.95
2023-03-03T16:57:22.486Z,22.85
2023-03-03T17:00:04.049Z,24.52
2023-03-03T17:03:21.993Z,28.33
2023-03-03T17:05:58.353Z,25.13
2023-03-03T17:09:01.368Z,23.95
2023-03-03T17:11:46.404Z,25.73
2023-03-03T17:14:38.899Z,26.10
2023-03-03T17:17:12.584Z,24.45
2023-03-03T17:19:57.547Z,24.15
2023-03-03T17:22:31.139Z,22.92
2023-03-03T17:25:09.322Z,22.80
2023-03-03T17:27:54.213Z,22.17
2023-03-03T17:30:33.817Z,27.13
2023-03-03T17:33:35.859Z,23.88
2023-03-03T17:36:29.646Z,21.25
2023-03-03T17:39:13.624Z,20.27
2023-03-03T17:41:47.684Z,21.55
2023-03-03T17:44:28.715Z,20.00
2023-03-03T17:47:10.841Z,21.20
2023-03-03T17:50:10.722Z,24.17
2023-03-03T17:52:59.269Z,25.33
2023-03-03T17:56:03.977Z,23.63
2023-03-03T17:59:07.540Z,26.60
2023-03-03T18:01:53.802Z,23.37
2023-03-03T18:04:34.229Z,26.08
2023-03-03T18:07:23.352Z,26.55
2023-03-03T18:10:44.394Z,21.98
2023-03-03T18:13:26.110Z,26.45
2023-03-03T18:16:11.906Z,30.93
2023-03-03T18:19:07.311Z,26.10
2023-03-03T18:21:47.486Z,28.15
2023-03-03T18:24:42.868Z,32.55
2023-03-03T18:27:34.865Z,27.90
2023-03-03T18:30:32.140Z,31.77
2023-03-03T18:36:17.510Z,30.75
2023-03-03T18:38:56.817Z,30.90
2023-03-03T18:41:35.970Z,28.60
2023-03-03T18:44:32.765Z,29.47
2023-03-03T18:47:11.707Z,32.27
2023-03-03T18:50:02.677Z,33.40
2023-03-03T18:52:43.636Z,33.08
2023-03-03T18:55:30.058Z,34.67
2023-03-03T18:58:46.458Z,31.85
2023-03-03T19:01:44.492Z,40.20
2023-03-03T19:04:25.038Z,37.35
2023-03-03T19:07:25.210Z,38.28
2023-03-03T19:10:01.920Z,34.35
2023-03-03T19:13:15.322Z,36.63
2023-03-03T19:18:27.272Z,41.83
2023-03-03T19:21:07.275Z,36.95
2023-03-03T19:24:00.321Z,39.50
2023-03-03T19:27:04.079Z,35.25
2023-03-03T19:30:04.396Z,40.13
2023-03-03T19:33:19.398Z,41.35
2023-03-03T19:35:54.794Z,39.45
2023-03-03T19:38:38.033Z,37.17
2023-03-03T19:41:26.934Z,39.40
2023-03-03T19:44:08.810Z,38.63
2023-03-03T19:47:03.721Z,40.08
2023-03-03T19:49:39.413Z,39.38
2023-03-03T19:52:19.717Z,38.78
2023-03-03T19:55:01.567Z,39.53
2023-03-03T19:57:43.454Z,42.20
2023-03-03T20:00:23.935Z,36.80
2023-03-03T20:03:17.510Z,36.35
2023-03-03T20:05:59.605Z,42.80
2023-03-03T20:08:34.906Z,41.45
2023-03-03T20:11:14.176Z,41.42
2023-03-03T20:13:57.420Z,38.65
2023-03-03T20:16:45.638Z,38.20
2023-03-03T20:19:32.924Z,34.03
2023-03-03T20:22:08.645Z,34.17
2023-03-03T20:24:54.323Z,33.63
2023-03-03T20:27:37.032Z,33.58
2023-03-03T20:30:32.016Z,34.00
2023-03-03T20:33:22.203Z,28.88
2023-03-03T20:36:08.841Z,33.45
2023-03-03T20:38:53.382Z,30.88
2023-03-03T20:41:36.516Z,30.60
2023-03-03T20:44:17.071Z,28.05
2023-03-03T20:46:58.354Z,31.55
2023-03-03T20:49:42.636Z,29.25
2023-03-03T20:52:23.824Z,29.08
2023-03-03T20:55:03.886Z,30.55
2023-03-03T20:57:44.138Z,32.25
2023-03-03T21:00:22.066Z,29.65
2023-03-03T21:03:02.990Z,38.88
2023-03-03T21:05:39.583Z,37.80
2023-03-03T21:11:02.566Z,37.20
2023-03-03T21:13:41.611Z,36.67
2023-03-03T21:16:36.043Z,37.15
2023-03-03T21:19:29.733Z,41.90
2023-03-03T21:22:18.194Z,42.90
2023-03-03T21:25:01.489Z,43.35
2023-03-03T21:27:50.855Z,47.47
2023-03-03T21:30:30.635Z,42.72
2023-03-03T21:33:11.413Z,40.40
2023-03-03T21:36:03.976Z,38.60
2023-03-03T21:38:40.196Z,44.67
2023-03-03T21:41:24.294Z,42.15
2023-03-03T21:44:01.531Z,32.55
2023-03-03T21:46:38.510Z,42.70
2023-03-03T21:49:15.927Z,44.30
2023-03-03T21:51:53.628Z,45.75
2023-03-03T21:54:31.247Z,46.77
2023-03-03T21:57:12.412Z,44.22
2023-03-03T21:59:49.540Z,49.25
2023-03-03T22:02:29.758Z,50.87
2023-03-03T22:05:08.241Z,57.28
2023-03-03T22:07:42.868Z,56.33
2023-03-03T22:10:20.928Z,59.75
2023-03-03T22:13:04.532Z,57.60
2023-03-03T22:15:40.326Z,58.50
2023-03-03T22:18:22.766Z,65.30
2023-03-03T22:21:01.265Z,63.08
2023-03-03T22:23:39.062Z,63.05
2023-03-03T22:26:17.616Z,60.63
2023-03-03T22:28:53.402Z,61.47
2023-03-03T22:31:34.692Z,57.45
2023-03-03T22:34:15.309Z,55.40
2023-03-03T22:36:54.057Z,60.90
2023-03-03T22:39:30.766Z,60.73
2023-03-03T22:42:11.370Z,57.78
2023-03-03T22:44:48.837Z,60.30
2023-03-03T22:47:29.908Z,59.08
2023-03-03T22:50:10.179Z,65.72
2023-03-03T22:52:49.060Z,61.90
2023-03-03T22:55:29.786Z,66.05
2023-03-03T22:58:10.137Z,74.63
2023-03-03T23:00:46.305Z,66.70
2023-03-03T23:03:26.942Z,65.53
2023-03-03T23:06:04.980Z,64.50
2023-03-03T23:08:43.439Z,67.75
2023-03-03T23:11:22.231Z,63.90
2023-03-03T23:14:00.796Z,59.73
2023-03-03T23:16:37.937Z,62.10
2023-03-03T23:19:22.298Z,61.97
2023-03-03T23:22:00.784Z,66.55
2023-03-03T23:24:39.007Z,65.85
2023-03-03T23:27:16.807Z,71.53
2023-03-03T23:29:55.918Z,65.75
2023-03-03T23:32:33.462Z,61.85
2023-03-03T23:35:19.247Z,68.35
2023-03-03T23:38:18.148Z,68.03
2023-03-03T23:43:53.724Z,59.67
2023-03-03T23:46:31.227Z,59.75
2023-03-03T23:49:13.029Z,58.00
2023-03-03T23:51:52.561Z,63.40
2023-03-03T23:54:30.433Z,61.10
2023-03-03T23:57:09.192Z,64.25
2023-03-03T23:59:46.633Z,62.53
